Terminal Aerodrome Forecast
Issued by NWS Flagstaff, AZ

Home | Current Version | Previous Version | Text Only | Print | Product List | Glossary On
Versions: 1 2 3 4 5 6 7 8 9 10 11 12 13 14 15 16 17 18 19
000
FTUS45 KFGZ 021738
TAFFLG
TAF
KFLG 021738Z 0218/0318 24008KT P6SM SCT060 SCT120
      TEMPO 0220/0224 VRB10G25KT 6SM TSRA BKN060CB
     FM030000 VRB06KT P6SM SCT050 BKN120=

USA.gov is the U.S. government's official web portal to all federal, state and local government web resources and services.